Roy, Montana
Current Conditions -  °F | °C
As of 8:54 PM on Tuesday 21 Oct 2014 (Local Time) from KLWT Reporting Station
Light Rain Light Rain  
Wind Chill: 38°   Ceiling: 3100
Heat Index: 44°   Visibility: 10mi
Dew Point: 39°   Wind: 12mph
Humidity: 82%   Direction: 280°W
Pressure: 29.89"   Gusts: 22mph
Location:  47.33°N, 108.96°W
Report Text: KLWT 220254Z AUTO 28010G19KT 10SM -RA FEW014 OVC031 07/04 A2989 RMK AO2 SLP113 P0010 60013 T00670039 51026
Loading
Personal Weather Stations






























Interactive Weather Map
Tropical Storm Tracking
New forecast layout! Learn more

10-Day Weather Forecast

Advertisements
Track Severe Weather on mobile